sensor_id;sensor_type;location;lat;lon;timestamp;P1;durP1;ratioP1;P2;durP2;ratioP2
40339;SDS011;26044;50.864;20.658;2023-06-14T00:00:01;19.15;;;7.28;;
40339;SDS011;26044;50.864;20.658;2023-06-14T00:02:33;19.98;;;6.40;;
40339;SDS011;26044;50.864;20.658;2023-06-14T00:05:04;18.77;;;6.40;;
40339;SDS011;26044;50.864;20.658;2023-06-14T00:07:48;17.92;;;6.47;;
40339;SDS011;26044;50.864;20.658;2023-06-14T00:10:25;15.57;;;6.55;;
40339;SDS011;26044;50.864;20.658;2023-06-14T00:12:57;14.65;;;6.10;;
40339;SDS011;26044;50.864;20.658;2023-06-14T00:15:57;18.73;;;6.65;;
40339;SDS011;26044;50.864;20.658;2023-06-14T00:18:28;19.88;;;7.05;;
40339;SDS011;26044;50.864;20.658;2023-06-14T00:21:18;14.90;;;6.88;;
40339;SDS011;26044;50.864;20.658;2023-06-14T00:24:22;17.50;;;7.40;;
40339;SDS011;26044;50.864;20.658;2023-06-14T00:27:15;15.18;;;6.65;;
40339;SDS011;26044;50.864;20.658;2023-06-14T00:29:46;18.15;;;7.70;;
40339;SDS011;26044;50.864;20.658;2023-06-14T00:32:19;19.83;;;7.53;;
40339;SDS011;26044;50.864;20.658;2023-06-14T00:35:26;15.93;;;6.93;;
40339;SDS011;26044;50.864;20.658;2023-06-14T00:38:36;21.83;;;7.97;;
40339;SDS011;26044;50.864;20.658;2023-06-14T00:41:08;18.52;;;7.85;;
40339;SDS011;26044;50.864;20.658;2023-06-14T00:43:38;22.65;;;8.90;;
40339;SDS011;26044;50.864;20.658;2023-06-14T00:46:37;20.85;;;8.07;;
40339;SDS011;26044;50.864;20.658;2023-06-14T00:49:40;19.65;;;8.13;;
40339;SDS011;26044;50.864;20.658;2023-06-14T00:52:11;22.15;;;9.02;;
40339;SDS011;26044;50.864;20.658;2023-06-14T00:54:42;21.30;;;9.15;;
40339;SDS011;26044;50.864;20.658;2023-06-14T00:57:17;20.65;;;9.05;;
40339;SDS011;26044;50.864;20.658;2023-06-14T00:59:48;19.48;;;8.77;;
40339;SDS011;26044;50.864;20.658;2023-06-14T01:02:19;20.00;;;9.02;;
40339;SDS011;26044;50.864;20.658;2023-06-14T01:04:52;23.92;;;10.07;;
40339;SDS011;26044;50.864;20.658;2023-06-14T01:13:34;26.15;;;11.05;;
40339;SDS011;26044;50.864;20.658;2023-06-14T01:16:07;24.05;;;10.68;;
40339;SDS011;26044;50.864;20.658;2023-06-14T01:18:37;23.67;;;11.10;;
40339;SDS011;26044;50.864;20.658;2023-06-14T01:21:05;24.40;;;10.65;;
40339;SDS011;26044;50.864;20.658;2023-06-14T01:23:36;26.02;;;10.82;;
40339;SDS011;26044;50.864;20.658;2023-06-14T01:26:08;22.35;;;9.75;;
40339;SDS011;26044;50.864;20.658;2023-06-14T01:28:41;23.05;;;9.93;;
40339;SDS011;26044;50.864;20.658;2023-06-14T01:31:21;22.00;;;9.77;;
40339;SDS011;26044;50.864;20.658;2023-06-14T01:34:45;20.85;;;9.23;;
40339;SDS011;26044;50.864;20.658;2023-06-14T01:37:27;21.33;;;10.13;;
40339;SDS011;26044;50.864;20.658;2023-06-14T01:40:15;25.55;;;10.45;;
40339;SDS011;26044;50.864;20.658;2023-06-14T01:43:25;25.27;;;11.93;;
40339;SDS011;26044;50.864;20.658;2023-06-14T01:46:36;24.15;;;11.45;;
40339;SDS011;26044;50.864;20.658;2023-06-14T01:49:12;24.10;;;11.38;;
40339;SDS011;26044;50.864;20.658;2023-06-14T01:51:57;23.02;;;11.73;;
40339;SDS011;26044;50.864;20.658;2023-06-14T01:54:42;27.02;;;11.50;;
40339;SDS011;26044;50.864;20.658;2023-06-14T02:01:21;22.38;;;11.15;;
40339;SDS011;26044;50.864;20.658;2023-06-14T02:04:01;24.17;;;11.85;;
40339;SDS011;26044;50.864;20.658;2023-06-14T02:07:33;24.90;;;11.73;;
40339;SDS011;26044;50.864;20.658;2023-06-14T02:10:11;22.45;;;10.85;;
40339;SDS011;26044;50.864;20.658;2023-06-14T02:12:39;23.55;;;10.90;;
40339;SDS011;26044;50.864;20.658;2023-06-14T02:15:11;24.27;;;10.77;;
40339;SDS011;26044;50.864;20.658;2023-06-14T02:18:06;27.10;;;10.88;;
40339;SDS011;26044;50.864;20.658;2023-06-14T02:21:24;25.63;;;11.70;;
40339;SDS011;26044;50.864;20.658;2023-06-14T02:24:16;23.60;;;11.68;;
40339;SDS011;26044;50.864;20.658;2023-06-14T02:27:14;26.02;;;14.05;;
40339;SDS011;26044;50.864;20.658;2023-06-14T02:29:48;28.23;;;15.05;;
40339;SDS011;26044;50.864;20.658;2023-06-14T02:32:48;29.58;;;13.82;;
40339;SDS011;26044;50.864;20.658;2023-06-14T02:36:15;25.45;;;12.57;;
40339;SDS011;26044;50.864;20.658;2023-06-14T02:38:50;24.65;;;11.30;;
40339;SDS011;26044;50.864;20.658;2023-06-14T02:45:07;23.25;;;11.45;;
40339;SDS011;26044;50.864;20.658;2023-06-14T02:48:01;22.48;;;11.07;;
40339;SDS011;26044;50.864;20.658;2023-06-14T02:54:06;23.60;;;10.65;;
40339;SDS011;26044;50.864;20.658;2023-06-14T02:56:36;21.92;;;10.35;;
40339;SDS011;26044;50.864;20.658;2023-06-14T02:59:11;25.95;;;11.57;;
40339;SDS011;26044;50.864;20.658;2023-06-14T03:02:05;25.98;;;11.05;;
40339;SDS011;26044;50.864;20.658;2023-06-14T03:04:52;23.00;;;10.32;;
40339;SDS011;26044;50.864;20.658;2023-06-14T03:07:35;21.05;;;10.10;;
40339;SDS011;26044;50.864;20.658;2023-06-14T03:10:25;18.80;;;8.77;;
40339;SDS011;26044;50.864;20.658;2023-06-14T03:16:25;19.65;;;8.60;;
40339;SDS011;26044;50.864;20.658;2023-06-14T03:37:50;18.85;;;8.13;;
40339;SDS011;26044;50.864;20.658;2023-06-14T03:40:18;20.48;;;8.80;;
40339;SDS011;26044;50.864;20.658;2023-06-14T03:42:46;20.23;;;8.27;;
40339;SDS011;26044;50.864;20.658;2023-06-14T03:45:13;19.00;;;7.72;;
40339;SDS011;26044;50.864;20.658;2023-06-14T03:47:41;21.17;;;8.00;;
40339;SDS011;26044;50.864;20.658;2023-06-14T03:50:08;19.40;;;8.00;;
40339;SDS011;26044;50.864;20.658;2023-06-14T03:52:36;17.52;;;8.18;;
40339;SDS011;26044;50.864;20.658;2023-06-14T03:55:03;22.42;;;8.30;;
40339;SDS011;26044;50.864;20.658;2023-06-14T03:57:34;19.00;;;7.53;;
40339;SDS011;26044;50.864;20.658;2023-06-14T04:00:01;16.95;;;7.22;;
40339;SDS011;26044;50.864;20.658;2023-06-14T04:02:31;20.40;;;7.15;;
40339;SDS011;26044;50.864;20.658;2023-06-14T04:04:58;20.27;;;7.85;;
40339;SDS011;26044;50.864;20.658;2023-06-14T04:07:27;21.55;;;7.82;;
40339;SDS011;26044;50.864;20.658;2023-06-14T04:09:57;19.00;;;7.95;;
40339;SDS011;26044;50.864;20.658;2023-06-14T04:12:24;19.95;;;8.05;;
40339;SDS011;26044;50.864;20.658;2023-06-14T04:14:51;18.40;;;7.65;;
40339;SDS011;26044;50.864;20.658;2023-06-14T04:19:49;18.98;;;7.60;;
40339;SDS011;26044;50.864;20.658;2023-06-14T04:22:25;13.93;;;6.30;;
40339;SDS011;26044;50.864;20.658;2023-06-14T04:24:54;15.52;;;6.90;;
40339;SDS011;26044;50.864;20.658;2023-06-14T04:27:42;14.10;;;6.25;;
40339;SDS011;26044;50.864;20.658;2023-06-14T04:30:10;18.65;;;7.05;;
40339;SDS011;26044;50.864;20.658;2023-06-14T04:32:37;17.15;;;6.80;;
40339;SDS011;26044;50.864;20.658;2023-06-14T04:35:06;18.13;;;7.32;;
40339;SDS011;26044;50.864;20.658;2023-06-14T04:37:35;17.97;;;7.23;;
40339;SDS011;26044;50.864;20.658;2023-06-14T04:40:06;16.35;;;7.00;;
40339;SDS011;26044;50.864;20.658;2023-06-14T04:42:37;18.45;;;7.47;;
40339;SDS011;26044;50.864;20.658;2023-06-14T04:45:09;19.38;;;8.15;;
40339;SDS011;26044;50.864;20.658;2023-06-14T04:47:36;17.63;;;7.53;;
40339;SDS011;26044;50.864;20.658;2023-06-14T04:50:05;20.20;;;8.50;;
40339;SDS011;26044;50.864;20.658;2023-06-14T04:52:39;16.85;;;7.40;;
40339;SDS011;26044;50.864;20.658;2023-06-14T04:55:06;16.88;;;7.75;;
40339;SDS011;26044;50.864;20.658;2023-06-14T04:57:33;22.15;;;8.48;;
40339;SDS011;26044;50.864;20.658;2023-06-14T05:00:01;18.73;;;8.63;;
40339;SDS011;26044;50.864;20.658;2023-06-14T05:02:32;24.13;;;8.93;;
40339;SDS011;26044;50.864;20.658;2023-06-14T05:05:00;20.05;;;8.63;;
40339;SDS011;26044;50.864;20.658;2023-06-14T05:07:28;21.60;;;8.77;;
40339;SDS011;26044;50.864;20.658;2023-06-14T05:09:56;18.75;;;9.38;;
40339;SDS011;26044;50.864;20.658;2023-06-14T05:12:26;23.23;;;9.77;;
40339;SDS011;26044;50.864;20.658;2023-06-14T05:15:03;21.25;;;9.60;;
40339;SDS011;26044;50.864;20.658;2023-06-14T05:38:12;19.15;;;8.93;;
40339;SDS011;26044;50.864;20.658;2023-06-14T05:58:48;18.55;;;8.25;;
40339;SDS011;26044;50.864;20.658;2023-06-14T06:01:29;22.15;;;9.18;;
40339;SDS011;26044;50.864;20.658;2023-06-14T06:04:07;20.02;;;8.70;;
40339;SDS011;26044;50.864;20.658;2023-06-14T06:06:34;19.58;;;8.77;;
40339;SDS011;26044;50.864;20.658;2023-06-14T06:09:02;19.35;;;8.50;;
40339;SDS011;26044;50.864;20.658;2023-06-14T06:11:31;19.90;;;8.57;;
40339;SDS011;26044;50.864;20.658;2023-06-14T06:14:13;19.20;;;8.15;;
40339;SDS011;26044;50.864;20.658;2023-06-14T06:16:41;20.92;;;8.65;;
40339;SDS011;26044;50.864;20.658;2023-06-14T06:19:08;20.77;;;8.88;;
40339;SDS011;26044;50.864;20.658;2023-06-14T06:21:35;15.30;;;7.35;;
40339;SDS011;26044;50.864;20.658;2023-06-14T06:24:04;18.50;;;8.25;;
40339;SDS011;26044;50.864;20.658;2023-06-14T06:26:32;14.10;;;6.57;;
40339;SDS011;26044;50.864;20.658;2023-06-14T06:28:59;19.15;;;7.35;;
40339;SDS011;26044;50.864;20.658;2023-06-14T06:31:26;17.15;;;7.00;;
40339;SDS011;26044;50.864;20.658;2023-06-14T06:33:54;19.48;;;6.78;;
40339;SDS011;26044;50.864;20.658;2023-06-14T06:36:21;21.90;;;7.88;;
40339;SDS011;26044;50.864;20.658;2023-06-14T06:38:48;14.55;;;6.38;;
40339;SDS011;26044;50.864;20.658;2023-06-14T06:41:15;16.65;;;7.10;;
40339;SDS011;26044;50.864;20.658;2023-06-14T06:43:44;17.50;;;6.67;;
40339;SDS011;26044;50.864;20.658;2023-06-14T06:46:11;17.52;;;6.80;;
40339;SDS011;26044;50.864;20.658;2023-06-14T06:48:39;19.85;;;7.57;;
40339;SDS011;26044;50.864;20.658;2023-06-14T06:51:06;17.65;;;6.82;;
40339;SDS011;26044;50.864;20.658;2023-06-14T06:53:36;16.92;;;6.32;;
40339;SDS011;26044;50.864;20.658;2023-06-14T06:56:09;17.45;;;7.00;;
40339;SDS011;26044;50.864;20.658;2023-06-14T06:58:36;21.85;;;8.13;;
40339;SDS011;26044;50.864;20.658;2023-06-14T07:01:05;15.52;;;6.43;;
40339;SDS011;26044;50.864;20.658;2023-06-14T07:03:35;17.88;;;6.68;;
40339;SDS011;26044;50.864;20.658;2023-06-14T07:06:02;15.88;;;5.90;;
40339;SDS011;26044;50.864;20.658;2023-06-14T07:08:30;18.02;;;6.65;;
40339;SDS011;26044;50.864;20.658;2023-06-14T07:10:57;20.30;;;6.80;;
40339;SDS011;26044;50.864;20.658;2023-06-14T07:13:27;16.10;;;6.85;;
40339;SDS011;26044;50.864;20.658;2023-06-14T07:15:56;21.08;;;6.70;;
40339;SDS011;26044;50.864;20.658;2023-06-14T07:18:25;16.42;;;6.35;;
40339;SDS011;26044;50.864;20.658;2023-06-14T07:20:55;15.45;;;6.50;;
40339;SDS011;26044;50.864;20.658;2023-06-14T07:23:26;15.45;;;6.05;;
40339;SDS011;26044;50.864;20.658;2023-06-14T07:25:53;13.48;;;5.82;;
40339;SDS011;26044;50.864;20.658;2023-06-14T07:28:20;17.02;;;6.03;;
40339;SDS011;26044;50.864;20.658;2023-06-14T07:30:49;14.75;;;5.85;;
40339;SDS011;26044;50.864;20.658;2023-06-14T07:33:16;13.02;;;5.32;;
40339;SDS011;26044;50.864;20.658;2023-06-14T07:35:43;13.35;;;5.43;;
40339;SDS011;26044;50.864;20.658;2023-06-14T07:38:10;13.88;;;5.65;;
40339;SDS011;26044;50.864;20.658;2023-06-14T07:40:47;11.23;;;5.18;;
40339;SDS011;26044;50.864;20.658;2023-06-14T07:46:18;15.50;;;5.07;;
40339;SDS011;26044;50.864;20.658;2023-06-14T07:52:26;11.23;;;4.82;;
40339;SDS011;26044;50.864;20.658;2023-06-14T07:55:02;12.23;;;5.35;;
40339;SDS011;26044;50.864;20.658;2023-06-14T08:01:04;11.55;;;5.13;;
40339;SDS011;26044;50.864;20.658;2023-06-14T08:07:43;11.88;;;4.93;;
40339;SDS011;26044;50.864;20.658;2023-06-14T08:11:23;14.73;;;5.38;;
40339;SDS011;26044;50.864;20.658;2023-06-14T08:14:04;12.40;;;5.38;;
40339;SDS011;26044;50.864;20.658;2023-06-14T08:16:45;18.23;;;5.15;;
40339;SDS011;26044;50.864;20.658;2023-06-14T08:19:35;14.90;;;5.65;;
40339;SDS011;26044;50.864;20.658;2023-06-14T08:22:06;13.85;;;5.90;;
40339;SDS011;26044;50.864;20.658;2023-06-14T08:24:38;12.70;;;5.30;;
40339;SDS011;26044;50.864;20.658;2023-06-14T08:27:07;13.77;;;5.18;;
40339;SDS011;26044;50.864;20.658;2023-06-14T08:29:35;11.32;;;5.20;;
40339;SDS011;26044;50.864;20.658;2023-06-14T08:34:39;13.65;;;5.70;;
40339;SDS011;26044;50.864;20.658;2023-06-14T08:37:21;19.67;;;6.13;;
40339;SDS011;26044;50.864;20.658;2023-06-14T08:39:53;17.33;;;6.80;;
40339;SDS011;26044;50.864;20.658;2023-06-14T08:46:17;20.23;;;5.38;;
40339;SDS011;26044;50.864;20.658;2023-06-14T08:53:27;16.58;;;5.43;;
40339;SDS011;26044;50.864;20.658;2023-06-14T08:56:04;13.10;;;5.10;;
40339;SDS011;26044;50.864;20.658;2023-06-14T08:58:34;17.52;;;5.35;;
40339;SDS011;26044;50.864;20.658;2023-06-14T09:01:02;12.68;;;4.88;;
40339;SDS011;26044;50.864;20.658;2023-06-14T09:03:30;16.48;;;5.70;;
40339;SDS011;26044;50.864;20.658;2023-06-14T09:06:00;13.50;;;5.45;;
40339;SDS011;26044;50.864;20.658;2023-06-14T09:08:27;16.85;;;5.57;;
40339;SDS011;26044;50.864;20.658;2023-06-14T09:13:26;19.33;;;4.75;;
40339;SDS011;26044;50.864;20.658;2023-06-14T09:15:57;11.50;;;4.93;;
40339;SDS011;26044;50.864;20.658;2023-06-14T09:18:46;16.70;;;5.55;;
40339;SDS011;26044;50.864;20.658;2023-06-14T09:21:14;17.23;;;6.07;;
40339;SDS011;26044;50.864;20.658;2023-06-14T09:23:46;22.75;;;5.50;;
40339;SDS011;26044;50.864;20.658;2023-06-14T09:26:15;11.50;;;4.57;;
40339;SDS011;26044;50.864;20.658;2023-06-14T09:28:46;12.82;;;4.50;;
40339;SDS011;26044;50.864;20.658;2023-06-14T09:31:17;15.80;;;5.03;;
40339;SDS011;26044;50.864;20.658;2023-06-14T09:33:49;14.43;;;5.22;;
40339;SDS011;26044;50.864;20.658;2023-06-14T09:36:22;16.70;;;4.45;;
40339;SDS011;26044;50.864;20.658;2023-06-14T09:38:57;11.20;;;4.43;;
40339;SDS011;26044;50.864;20.658;2023-06-14T09:41:39;14.85;;;5.07;;
40339;SDS011;26044;50.864;20.658;2023-06-14T09:44:08;13.55;;;4.85;;
40339;SDS011;26044;50.864;20.658;2023-06-14T09:46:42;14.18;;;4.38;;
40339;SDS011;26044;50.864;20.658;2023-06-14T09:49:10;17.45;;;5.47;;
40339;SDS011;26044;50.864;20.658;2023-06-14T09:51:44;12.57;;;4.97;;
40339;SDS011;26044;50.864;20.658;2023-06-14T09:54:14;12.75;;;4.97;;
40339;SDS011;26044;50.864;20.658;2023-06-14T09:56:46;13.73;;;5.03;;
40339;SDS011;26044;50.864;20.658;2023-06-14T09:59:16;16.73;;;5.40;;
40339;SDS011;26044;50.864;20.658;2023-06-14T10:01:48;11.93;;;4.40;;
40339;SDS011;26044;50.864;20.658;2023-06-14T10:04:16;13.82;;;4.97;;
40339;SDS011;26044;50.864;20.658;2023-06-14T10:06:47;12.63;;;4.75;;
40339;SDS011;26044;50.864;20.658;2023-06-14T10:09:16;13.43;;;4.70;;
40339;SDS011;26044;50.864;20.658;2023-06-14T10:11:43;10.10;;;4.13;;
40339;SDS011;26044;50.864;20.658;2023-06-14T10:14:13;13.82;;;5.03;;
40339;SDS011;26044;50.864;20.658;2023-06-14T10:24:40;13.88;;;4.85;;
40339;SDS011;26044;50.864;20.658;2023-06-14T10:27:15;13.50;;;5.38;;
40339;SDS011;26044;50.864;20.658;2023-06-14T10:32:21;15.15;;;5.13;;
40339;SDS011;26044;50.864;20.658;2023-06-14T10:34:56;15.60;;;5.15;;
40339;SDS011;26044;50.864;20.658;2023-06-14T10:37:28;13.23;;;5.05;;
40339;SDS011;26044;50.864;20.658;2023-06-14T10:39:55;14.80;;;5.47;;
40339;SDS011;26044;50.864;20.658;2023-06-14T10:42:23;19.27;;;6.28;;
40339;SDS011;26044;50.864;20.658;2023-06-14T10:44:55;14.85;;;5.60;;
40339;SDS011;26044;50.864;20.658;2023-06-14T10:47:33;14.48;;;5.68;;
40339;SDS011;26044;50.864;20.658;2023-06-14T10:52:37;12.65;;;5.72;;
40339;SDS011;26044;50.864;20.658;2023-06-14T10:55:12;16.17;;;5.57;;
40339;SDS011;26044;50.864;20.658;2023-06-14T11:00:19;12.77;;;5.43;;
40339;SDS011;26044;50.864;20.658;2023-06-14T11:02:58;14.13;;;5.70;;
40339;SDS011;26044;50.864;20.658;2023-06-14T11:11:12;14.27;;;5.65;;
40339;SDS011;26044;50.864;20.658;2023-06-14T11:13:41;17.27;;;6.40;;
40339;SDS011;26044;50.864;20.658;2023-06-14T11:16:11;13.95;;;5.72;;
40339;SDS011;26044;50.864;20.658;2023-06-14T11:18:45;16.40;;;5.90;;
40339;SDS011;26044;50.864;20.658;2023-06-14T11:21:16;14.20;;;5.90;;
40339;SDS011;26044;50.864;20.658;2023-06-14T11:23:49;15.05;;;5.70;;
40339;SDS011;26044;50.864;20.658;2023-06-14T11:26:24;16.52;;;6.28;;
40339;SDS011;26044;50.864;20.658;2023-06-14T11:28:54;14.32;;;5.90;;
40339;SDS011;26044;50.864;20.658;2023-06-14T11:31:24;15.80;;;5.95;;
40339;SDS011;26044;50.864;20.658;2023-06-14T11:34:00;15.82;;;6.22;;
40339;SDS011;26044;50.864;20.658;2023-06-14T11:36:33;17.50;;;6.60;;
40339;SDS011;26044;50.864;20.658;2023-06-14T11:39:03;19.25;;;6.47;;
40339;SDS011;26044;50.864;20.658;2023-06-14T11:41:37;17.40;;;6.28;;
40339;SDS011;26044;50.864;20.658;2023-06-14T11:44:08;13.82;;;6.05;;
40339;SDS011;26044;50.864;20.658;2023-06-14T11:46:35;15.77;;;6.15;;
40339;SDS011;26044;50.864;20.658;2023-06-14T11:49:06;15.40;;;6.28;;
40339;SDS011;26044;50.864;20.658;2023-06-14T11:51:35;15.90;;;6.03;;
40339;SDS011;26044;50.864;20.658;2023-06-14T11:54:07;14.85;;;6.43;;
40339;SDS011;26044;50.864;20.658;2023-06-14T11:56:44;16.20;;;5.68;;
40339;SDS011;26044;50.864;20.658;2023-06-14T11:59:13;15.15;;;6.55;;
40339;SDS011;26044;50.864;20.658;2023-06-14T12:01:42;17.10;;;6.18;;
40339;SDS011;26044;50.864;20.658;2023-06-14T12:04:22;19.85;;;6.07;;
40339;SDS011;26044;50.864;20.658;2023-06-14T12:06:54;14.95;;;6.43;;
40339;SDS011;26044;50.864;20.658;2023-06-14T12:09:23;13.65;;;5.95;;
40339;SDS011;26044;50.864;20.658;2023-06-14T12:11:59;17.65;;;6.20;;
40339;SDS011;26044;50.864;20.658;2023-06-14T12:14:30;15.55;;;5.75;;
40339;SDS011;26044;50.864;20.658;2023-06-14T12:17:05;14.65;;;6.43;;
40339;SDS011;26044;50.864;20.658;2023-06-14T12:19:33;15.13;;;5.85;;
40339;SDS011;26044;50.864;20.658;2023-06-14T12:22:10;17.33;;;7.05;;
40339;SDS011;26044;50.864;20.658;2023-06-14T12:24:39;15.95;;;6.32;;
40339;SDS011;26044;50.864;20.658;2023-06-14T12:29:39;20.58;;;6.75;;
40339;SDS011;26044;50.864;20.658;2023-06-14T12:32:07;18.45;;;7.05;;
40339;SDS011;26044;50.864;20.658;2023-06-14T12:34:35;16.20;;;6.68;;
40339;SDS011;26044;50.864;20.658;2023-06-14T12:37:02;16.65;;;7.60;;
40339;SDS011;26044;50.864;20.658;2023-06-14T12:39:30;19.23;;;7.93;;
40339;SDS011;26044;50.864;20.658;2023-06-14T12:41:58;21.05;;;8.18;;
40339;SDS011;26044;50.864;20.658;2023-06-14T12:44:25;18.90;;;8.10;;
40339;SDS011;26044;50.864;20.658;2023-06-14T12:46:52;17.40;;;7.68;;
40339;SDS011;26044;50.864;20.658;2023-06-14T12:49:21;18.33;;;7.93;;
40339;SDS011;26044;50.864;20.658;2023-06-14T12:51:50;21.45;;;8.30;;
40339;SDS011;26044;50.864;20.658;2023-06-14T12:54:17;18.55;;;8.85;;
40339;SDS011;26044;50.864;20.658;2023-06-14T12:57:04;19.30;;;8.05;;
40339;SDS011;26044;50.864;20.658;2023-06-14T12:59:32;21.60;;;7.93;;
40339;SDS011;26044;50.864;20.658;2023-06-14T13:02:19;20.48;;;8.85;;
40339;SDS011;26044;50.864;20.658;2023-06-14T13:04:51;19.20;;;8.60;;
40339;SDS011;26044;50.864;20.658;2023-06-14T13:07:18;17.23;;;8.38;;
40339;SDS011;26044;50.864;20.658;2023-06-14T13:09:45;19.92;;;8.65;;
40339;SDS011;26044;50.864;20.658;2023-06-14T13:12:12;18.50;;;8.48;;
40339;SDS011;26044;50.864;20.658;2023-06-14T13:14:40;22.70;;;8.65;;
40339;SDS011;26044;50.864;20.658;2023-06-14T13:17:08;21.58;;;8.85;;
40339;SDS011;26044;50.864;20.658;2023-06-14T13:19:36;19.45;;;8.27;;
40339;SDS011;26044;50.864;20.658;2023-06-14T13:22:03;20.65;;;8.23;;
40339;SDS011;26044;50.864;20.658;2023-06-14T13:24:33;21.30;;;9.15;;
40339;SDS011;26044;50.864;20.658;2023-06-14T13:27:00;19.02;;;9.05;;
40339;SDS011;26044;50.864;20.658;2023-06-14T13:29:27;18.80;;;8.52;;
40339;SDS011;26044;50.864;20.658;2023-06-14T13:31:54;19.80;;;8.75;;
40339;SDS011;26044;50.864;20.658;2023-06-14T13:34:22;15.68;;;5.35;;
40339;SDS011;26044;50.864;20.658;2023-06-14T13:36:49;32.13;;;9.68;;
40339;SDS011;26044;50.864;20.658;2023-06-14T13:39:17;22.85;;;7.18;;
40339;SDS011;26044;50.864;20.658;2023-06-14T13:41:44;23.48;;;7.82;;
40339;SDS011;26044;50.864;20.658;2023-06-14T13:44:11;27.38;;;8.85;;
40339;SDS011;26044;50.864;20.658;2023-06-14T13:46:42;24.67;;;8.90;;
40339;SDS011;26044;50.864;20.658;2023-06-14T13:49:09;20.05;;;8.82;;
40339;SDS011;26044;50.864;20.658;2023-06-14T13:51:36;18.20;;;7.45;;
40339;SDS011;26044;50.864;20.658;2023-06-14T13:54:04;18.83;;;8.10;;
40339;SDS011;26044;50.864;20.658;2023-06-14T13:56:33;21.35;;;8.55;;
40339;SDS011;26044;50.864;20.658;2023-06-14T13:59:00;20.92;;;9.20;;
40339;SDS011;26044;50.864;20.658;2023-06-14T14:01:27;19.33;;;8.80;;
40339;SDS011;26044;50.864;20.658;2023-06-14T14:03:55;23.63;;;9.68;;
40339;SDS011;26044;50.864;20.658;2023-06-14T14:06:22;23.13;;;9.57;;
40339;SDS011;26044;50.864;20.658;2023-06-14T14:08:50;23.42;;;9.02;;
40339;SDS011;26044;50.864;20.658;2023-06-14T14:11:19;20.23;;;8.90;;
40339;SDS011;26044;50.864;20.658;2023-06-14T14:13:46;19.67;;;9.27;;
40339;SDS011;26044;50.864;20.658;2023-06-14T14:16:14;29.23;;;10.93;;
40339;SDS011;26044;50.864;20.658;2023-06-14T14:18:41;22.42;;;9.93;;
40339;SDS011;26044;50.864;20.658;2023-06-14T14:21:08;21.52;;;11.20;;
40339;SDS011;26044;50.864;20.658;2023-06-14T14:23:36;23.35;;;11.30;;
40339;SDS011;26044;50.864;20.658;2023-06-14T14:26:06;24.67;;;11.05;;
40339;SDS011;26044;50.864;20.658;2023-06-14T14:28:33;22.77;;;11.55;;
40339;SDS011;26044;50.864;20.658;2023-06-14T14:31:00;20.33;;;10.23;;
40339;SDS011;26044;50.864;20.658;2023-06-14T14:33:27;22.20;;;11.35;;
40339;SDS011;26044;50.864;20.658;2023-06-14T14:35:56;20.08;;;10.45;;
40339;SDS011;26044;50.864;20.658;2023-06-14T14:38:24;22.05;;;10.10;;
40339;SDS011;26044;50.864;20.658;2023-06-14T14:40:52;22.35;;;10.40;;
40339;SDS011;26044;50.864;20.658;2023-06-14T14:43:21;20.30;;;9.55;;
40339;SDS011;26044;50.864;20.658;2023-06-14T14:45:49;20.38;;;10.13;;
40339;SDS011;26044;50.864;20.658;2023-06-14T14:48:18;22.42;;;10.10;;
40339;SDS011;26044;50.864;20.658;2023-06-14T14:50:47;19.52;;;8.80;;
40339;SDS011;26044;50.864;20.658;2023-06-14T14:53:14;18.35;;;8.60;;
40339;SDS011;26044;50.864;20.658;2023-06-14T14:55:44;20.98;;;9.63;;
40339;SDS011;26044;50.864;20.658;2023-06-14T14:58:30;19.83;;;10.55;;
40339;SDS011;26044;50.864;20.658;2023-06-14T15:00:57;23.90;;;11.00;;
40339;SDS011;26044;50.864;20.658;2023-06-14T15:03:24;20.58;;;10.13;;
40339;SDS011;26044;50.864;20.658;2023-06-14T15:05:51;23.73;;;9.95;;
40339;SDS011;26044;50.864;20.658;2023-06-14T15:08:18;19.55;;;10.45;;
40339;SDS011;26044;50.864;20.658;2023-06-14T15:10:46;22.17;;;11.02;;
40339;SDS011;26044;50.864;20.658;2023-06-14T15:13:15;23.75;;;11.10;;
40339;SDS011;26044;50.864;20.658;2023-06-14T15:15:42;23.10;;;11.32;;
40339;SDS011;26044;50.864;20.658;2023-06-14T15:18:10;24.45;;;12.38;;
40339;SDS011;26044;50.864;20.658;2023-06-14T15:20:37;21.67;;;12.25;;
40339;SDS011;26044;50.864;20.658;2023-06-14T15:23:04;22.13;;;12.10;;
40339;SDS011;26044;50.864;20.658;2023-06-14T15:25:32;29.13;;;12.55;;
40339;SDS011;26044;50.864;20.658;2023-06-14T15:27:59;21.27;;;11.15;;
40339;SDS011;26044;50.864;20.658;2023-06-14T15:30:27;23.73;;;10.90;;
40339;SDS011;26044;50.864;20.658;2023-06-14T15:32:57;25.02;;;11.18;;
40339;SDS011;26044;50.864;20.658;2023-06-14T15:35:24;20.90;;;10.77;;
40339;SDS011;26044;50.864;20.658;2023-06-14T15:37:52;22.00;;;10.73;;
40339;SDS011;26044;50.864;20.658;2023-06-14T15:40:19;21.80;;;11.35;;
40339;SDS011;26044;50.864;20.658;2023-06-14T15:42:46;21.10;;;10.68;;
40339;SDS011;26044;50.864;20.658;2023-06-14T15:45:13;20.52;;;9.68;;
40339;SDS011;26044;50.864;20.658;2023-06-14T15:47:41;22.77;;;10.77;;
40339;SDS011;26044;50.864;20.658;2023-06-14T15:50:08;21.90;;;10.55;;
40339;SDS011;26044;50.864;20.658;2023-06-14T15:52:40;24.98;;;12.35;;
40339;SDS011;26044;50.864;20.658;2023-06-14T15:55:13;20.35;;;10.55;;
40339;SDS011;26044;50.864;20.658;2023-06-14T15:57:40;23.40;;;11.30;;
40339;SDS011;26044;50.864;20.658;2023-06-14T16:00:13;22.60;;;10.88;;
40339;SDS011;26044;50.864;20.658;2023-06-14T16:02:44;20.10;;;11.13;;
40339;SDS011;26044;50.864;20.658;2023-06-14T16:05:12;24.00;;;11.63;;
40339;SDS011;26044;50.864;20.658;2023-06-14T16:07:41;25.38;;;13.32;;
40339;SDS011;26044;50.864;20.658;2023-06-14T16:10:08;23.35;;;12.68;;
40339;SDS011;26044;50.864;20.658;2023-06-14T16:12:36;22.38;;;11.02;;
40339;SDS011;26044;50.864;20.658;2023-06-14T16:15:28;23.02;;;11.88;;
40339;SDS011;26044;50.864;20.658;2023-06-14T16:17:56;26.95;;;11.60;;
40339;SDS011;26044;50.864;20.658;2023-06-14T16:20:26;23.50;;;12.07;;
40339;SDS011;26044;50.864;20.658;2023-06-14T16:22:54;20.88;;;10.65;;
40339;SDS011;26044;50.864;20.658;2023-06-14T16:25:21;23.05;;;11.23;;
40339;SDS011;26044;50.864;20.658;2023-06-14T16:27:48;21.08;;;10.65;;
40339;SDS011;26044;50.864;20.658;2023-06-14T16:30:16;22.98;;;10.70;;
40339;SDS011;26044;50.864;20.658;2023-06-14T16:32:43;20.95;;;9.50;;
40339;SDS011;26044;50.864;20.658;2023-06-14T16:35:11;20.85;;;11.40;;
40339;SDS011;26044;50.864;20.658;2023-06-14T16:37:38;18.27;;;9.10;;
40339;SDS011;26044;50.864;20.658;2023-06-14T16:40:08;22.73;;;10.00;;
40339;SDS011;26044;50.864;20.658;2023-06-14T16:42:55;19.48;;;9.00;;
40339;SDS011;26044;50.864;20.658;2023-06-14T16:45:22;19.20;;;9.32;;
40339;SDS011;26044;50.864;20.658;2023-06-14T16:47:50;19.63;;;9.13;;
40339;SDS011;26044;50.864;20.658;2023-06-14T16:50:17;21.25;;;9.15;;
40339;SDS011;26044;50.864;20.658;2023-06-14T16:52:44;19.77;;;9.02;;
40339;SDS011;26044;50.864;20.658;2023-06-14T16:55:14;18.05;;;8.50;;
40339;SDS011;26044;50.864;20.658;2023-06-14T16:57:41;16.10;;;6.80;;
40339;SDS011;26044;50.864;20.658;2023-06-14T17:00:09;15.00;;;6.63;;
40339;SDS011;26044;50.864;20.658;2023-06-14T17:02:40;14.30;;;6.72;;